Disclaimer

Please do not use the information listed here in-flight or in-navigation, as they are not provided to us by the airports but are provided by volunteers, so they might be outdated.

Search


Regions


Airport information page

No radio frequency information is available.

Airport informations:
Latitude: 39° 49' 52.48" N
Longitude: 008° 53' 14.14" W
Elevation: 187 feet - 57 meters
Operating hours: Remarks
Operating agency: Military
Timezone: UTC 0(+1DT) - Last Sunday in March to last Sunday in October
Fuel: JP-4, Wide cut turbine fuel MIL Spec T-5624

100/130 MIL Spec, low lead, aviation gasoline (BLUE)

Runway information:
01/19 - 9816 x 148 feet< - >2992 x 45 meters

Recent METARs:
LPMR 172000Z 14012KT 9999 FEW022 18/13 Q1004
LPMR 172000Z 14012KT 9999 FEW022 18/13 Q1004
LPMR 172000Z 14012KT 9999 FEW022 18/13 Q1004

Airport on the map: